sensor_id;sensor_type;location;lat;lon;timestamp;P1;durP1;ratioP1;P2;durP2;ratioP2
60610;SDS011;46439;51.164;13.572;2022-10-03T00:01:38;17.70;;;2.70;;
60610;SDS011;46439;51.164;13.572;2022-10-03T00:07:23;12.70;;;2.50;;
60610;SDS011;46439;51.164;13.572;2022-10-03T00:10:11;12.70;;;2.70;;
60610;SDS011;46439;51.164;13.572;2022-10-03T00:12:51;19.00;;;2.90;;
60610;SDS011;46439;51.164;13.572;2022-10-03T00:15:33;20.60;;;2.90;;
60610;SDS011;46439;51.164;13.572;2022-10-03T00:18:10;12.10;;;2.50;;
60610;SDS011;46439;51.164;13.572;2022-10-03T00:20:47;20.50;;;3.20;;
60610;SDS011;46439;51.164;13.572;2022-10-03T00:23:34;17.10;;;2.80;;
60610;SDS011;46439;51.164;13.572;2022-10-03T00:26:10;18.60;;;2.90;;
60610;SDS011;46439;51.164;13.572;2022-10-03T00:29:00;18.30;;;2.80;;
60610;SDS011;46439;51.164;13.572;2022-10-03T00:31:40;14.80;;;3.00;;
60610;SDS011;46439;51.164;13.572;2022-10-03T00:34:22;16.20;;;3.10;;
60610;SDS011;46439;51.164;13.572;2022-10-03T00:37:07;26.70;;;3.60;;
60610;SDS011;46439;51.164;13.572;2022-10-03T00:39:48;17.20;;;2.80;;
60610;SDS011;46439;51.164;13.572;2022-10-03T00:45:35;12.40;;;2.70;;
60610;SDS011;46439;51.164;13.572;2022-10-03T00:48:31;16.00;;;2.70;;
60610;SDS011;46439;51.164;13.572;2022-10-03T00:51:21;24.70;;;3.00;;
60610;SDS011;46439;51.164;13.572;2022-10-03T00:54:03;21.20;;;3.10;;
60610;SDS011;46439;51.164;13.572;2022-10-03T00:56:51;20.90;;;3.70;;
60610;SDS011;46439;51.164;13.572;2022-10-03T00:59:37;18.20;;;2.90;;
60610;SDS011;46439;51.164;13.572;2022-10-03T01:02:18;23.60;;;4.00;;
60610;SDS011;46439;51.164;13.572;2022-10-03T01:05:02;21.80;;;3.50;;
60610;SDS011;46439;51.164;13.572;2022-10-03T01:07:57;23.70;;;3.80;;
60610;SDS011;46439;51.164;13.572;2022-10-03T01:10:42;19.60;;;4.20;;
60610;SDS011;46439;51.164;13.572;2022-10-03T01:13:21;18.80;;;3.00;;
60610;SDS011;46439;51.164;13.572;2022-10-03T01:16:00;25.50;;;3.00;;
60610;SDS011;46439;51.164;13.572;2022-10-03T01:18:41;22.60;;;3.00;;
60610;SDS011;46439;51.164;13.572;2022-10-03T01:21:22;17.60;;;2.50;;
60610;SDS011;46439;51.164;13.572;2022-10-03T01:27:00;17.10;;;2.90;;
60610;SDS011;46439;51.164;13.572;2022-10-03T01:29:33;21.00;;;3.30;;
60610;SDS011;46439;51.164;13.572;2022-10-03T01:32:29;26.20;;;3.20;;
60610;SDS011;46439;51.164;13.572;2022-10-03T01:35:08;17.90;;;2.90;;
60610;SDS011;46439;51.164;13.572;2022-10-03T01:37:50;19.80;;;2.80;;
60610;SDS011;46439;51.164;13.572;2022-10-03T01:40:25;21.40;;;2.80;;
60610;SDS011;46439;51.164;13.572;2022-10-03T01:45:30;22.90;;;3.10;;
60610;SDS011;46439;51.164;13.572;2022-10-03T01:48:13;21.80;;;3.00;;
60610;SDS011;46439;51.164;13.572;2022-10-03T01:50:49;23.20;;;2.90;;
60610;SDS011;46439;51.164;13.572;2022-10-03T01:53:28;28.00;;;3.30;;
60610;SDS011;46439;51.164;13.572;2022-10-03T01:56:04;20.40;;;3.10;;
60610;SDS011;46439;51.164;13.572;2022-10-03T01:58:41;20.00;;;2.70;;
60610;SDS011;46439;51.164;13.572;2022-10-03T02:01:23;20.00;;;2.80;;
60610;SDS011;46439;51.164;13.572;2022-10-03T02:03:56;25.40;;;3.10;;
60610;SDS011;46439;51.164;13.572;2022-10-03T02:06:34;19.00;;;3.10;;
60610;SDS011;46439;51.164;13.572;2022-10-03T02:09:15;22.80;;;4.10;;
60610;SDS011;46439;51.164;13.572;2022-10-03T02:11:56;29.00;;;3.70;;
60610;SDS011;46439;51.164;13.572;2022-10-03T02:14:34;31.80;;;4.50;;
60610;SDS011;46439;51.164;13.572;2022-10-03T02:17:19;24.60;;;6.30;;
60610;SDS011;46439;51.164;13.572;2022-10-03T02:19:59;21.50;;;4.70;;
60610;SDS011;46439;51.164;13.572;2022-10-03T02:22:34;32.00;;;7.70;;
60610;SDS011;46439;51.164;13.572;2022-10-03T02:28:29;29.00;;;8.00;;
60610;SDS011;46439;51.164;13.572;2022-10-03T02:31:28;23.20;;;3.70;;
60610;SDS011;46439;51.164;13.572;2022-10-03T02:34:41;27.90;;;4.50;;
60610;SDS011;46439;51.164;13.572;2022-10-03T02:40:26;24.50;;;4.50;;
60610;SDS011;46439;51.164;13.572;2022-10-03T02:46:12;28.80;;;4.10;;
60610;SDS011;46439;51.164;13.572;2022-10-03T02:52:14;19.80;;;3.30;;
60610;SDS011;46439;51.164;13.572;2022-10-03T02:55:07;21.50;;;3.30;;
60610;SDS011;46439;51.164;13.572;2022-10-03T03:07:31;26.30;;;4.00;;
60610;SDS011;46439;51.164;13.572;2022-10-03T03:13:10;23.90;;;3.10;;
60610;SDS011;46439;51.164;13.572;2022-10-03T03:16:09;17.20;;;3.50;;
60610;SDS011;46439;51.164;13.572;2022-10-03T03:19:15;21.50;;;3.60;;
60610;SDS011;46439;51.164;13.572;2022-10-03T03:21:57;20.30;;;3.30;;
60610;SDS011;46439;51.164;13.572;2022-10-03T03:24:42;23.30;;;3.40;;
60610;SDS011;46439;51.164;13.572;2022-10-03T03:27:34;22.60;;;3.30;;
60610;SDS011;46439;51.164;13.572;2022-10-03T03:30:09;26.70;;;3.90;;
60610;SDS011;46439;51.164;13.572;2022-10-03T03:32:45;27.20;;;4.30;;
60610;SDS011;46439;51.164;13.572;2022-10-03T03:35:28;18.50;;;3.20;;
60610;SDS011;46439;51.164;13.572;2022-10-03T03:38:14;20.70;;;3.60;;
60610;SDS011;46439;51.164;13.572;2022-10-03T03:40:57;23.50;;;3.10;;
60610;SDS011;46439;51.164;13.572;2022-10-03T03:43:46;19.50;;;3.70;;
60610;SDS011;46439;51.164;13.572;2022-10-03T03:46:29;19.70;;;3.50;;
60610;SDS011;46439;51.164;13.572;2022-10-03T03:49:11;20.70;;;3.50;;
60610;SDS011;46439;51.164;13.572;2022-10-03T03:51:54;18.10;;;3.80;;
60610;SDS011;46439;51.164;13.572;2022-10-03T03:54:42;27.90;;;3.30;;
60610;SDS011;46439;51.164;13.572;2022-10-03T03:57:33;20.40;;;3.40;;
60610;SDS011;46439;51.164;13.572;2022-10-03T04:00:18;22.40;;;3.70;;
60610;SDS011;46439;51.164;13.572;2022-10-03T04:03:03;20.50;;;3.90;;
60610;SDS011;46439;51.164;13.572;2022-10-03T04:05:48;19.30;;;3.50;;
60610;SDS011;46439;51.164;13.572;2022-10-03T04:08:39;19.50;;;4.20;;
60610;SDS011;46439;51.164;13.572;2022-10-03T04:11:25;24.90;;;3.30;;
60610;SDS011;46439;51.164;13.572;2022-10-03T04:14:13;29.70;;;4.20;;
60610;SDS011;46439;51.164;13.572;2022-10-03T04:17:06;16.10;;;3.50;;
60610;SDS011;46439;51.164;13.572;2022-10-03T04:20:11;19.50;;;3.60;;
60610;SDS011;46439;51.164;13.572;2022-10-03T04:22:54;23.60;;;3.80;;
60610;SDS011;46439;51.164;13.572;2022-10-03T04:28:43;25.00;;;3.30;;
60610;SDS011;46439;51.164;13.572;2022-10-03T04:31:28;20.20;;;3.40;;
60610;SDS011;46439;51.164;13.572;2022-10-03T04:34:10;19.30;;;3.60;;
60610;SDS011;46439;51.164;13.572;2022-10-03T04:37:00;22.00;;;3.40;;
60610;SDS011;46439;51.164;13.572;2022-10-03T04:39:40;21.00;;;4.10;;
60610;SDS011;46439;51.164;13.572;2022-10-03T04:42:19;17.80;;;3.40;;
60610;SDS011;46439;51.164;13.572;2022-10-03T04:45:02;22.70;;;3.10;;
60610;SDS011;46439;51.164;13.572;2022-10-03T04:47:41;22.40;;;3.40;;
60610;SDS011;46439;51.164;13.572;2022-10-03T04:50:17;25.10;;;3.80;;
60610;SDS011;46439;51.164;13.572;2022-10-03T04:52:58;23.10;;;3.40;;
60610;SDS011;46439;51.164;13.572;2022-10-03T04:55:42;26.30;;;3.60;;
60610;SDS011;46439;51.164;13.572;2022-10-03T04:58:23;24.00;;;3.40;;
60610;SDS011;46439;51.164;13.572;2022-10-03T05:01:05;17.50;;;4.00;;
60610;SDS011;46439;51.164;13.572;2022-10-03T05:03:46;19.70;;;4.50;;
60610;SDS011;46439;51.164;13.572;2022-10-03T05:06:24;22.60;;;3.60;;
60610;SDS011;46439;51.164;13.572;2022-10-03T05:09:07;26.80;;;5.70;;
60610;SDS011;46439;51.164;13.572;2022-10-03T05:11:52;25.90;;;3.50;;
60610;SDS011;46439;51.164;13.572;2022-10-03T05:14:27;25.70;;;3.80;;
60610;SDS011;46439;51.164;13.572;2022-10-03T05:17:08;26.50;;;3.80;;
60610;SDS011;46439;51.164;13.572;2022-10-03T05:19:48;20.00;;;3.70;;
60610;SDS011;46439;51.164;13.572;2022-10-03T05:22:39;19.40;;;3.30;;
60610;SDS011;46439;51.164;13.572;2022-10-03T05:25:39;21.50;;;3.60;;
60610;SDS011;46439;51.164;13.572;2022-10-03T05:28:20;25.30;;;3.60;;
60610;SDS011;46439;51.164;13.572;2022-10-03T05:31:02;20.10;;;3.40;;
60610;SDS011;46439;51.164;13.572;2022-10-03T05:33:44;18.10;;;3.50;;
60610;SDS011;46439;51.164;13.572;2022-10-03T05:36:24;20.90;;;3.50;;
60610;SDS011;46439;51.164;13.572;2022-10-03T05:39:18;21.00;;;3.30;;
60610;SDS011;46439;51.164;13.572;2022-10-03T05:41:53;23.20;;;4.00;;
60610;SDS011;46439;51.164;13.572;2022-10-03T05:44:38;23.00;;;3.70;;
60610;SDS011;46439;51.164;13.572;2022-10-03T05:47:11;22.70;;;3.40;;
60610;SDS011;46439;51.164;13.572;2022-10-03T05:50:33;22.30;;;3.90;;
60610;SDS011;46439;51.164;13.572;2022-10-03T05:56:27;25.60;;;3.80;;
60610;SDS011;46439;51.164;13.572;2022-10-03T06:05:16;21.20;;;3.90;;
60610;SDS011;46439;51.164;13.572;2022-10-03T06:08:16;18.10;;;4.00;;
60610;SDS011;46439;51.164;13.572;2022-10-03T06:11:10;23.50;;;4.50;;
60610;SDS011;46439;51.164;13.572;2022-10-03T06:13:53;25.00;;;3.80;;
60610;SDS011;46439;51.164;13.572;2022-10-03T06:16:39;29.20;;;5.70;;
60610;SDS011;46439;51.164;13.572;2022-10-03T06:19:23;30.70;;;6.10;;
60610;SDS011;46439;51.164;13.572;2022-10-03T06:31:50;25.50;;;4.90;;
60610;SDS011;46439;51.164;13.572;2022-10-03T06:34:41;25.70;;;4.80;;
60610;SDS011;46439;51.164;13.572;2022-10-03T06:37:34;25.80;;;5.00;;
60610;SDS011;46439;51.164;13.572;2022-10-03T06:43:27;27.80;;;9.20;;
60610;SDS011;46439;51.164;13.572;2022-10-03T06:52:13;26.30;;;5.00;;
60610;SDS011;46439;51.164;13.572;2022-10-03T06:55:06;21.90;;;5.20;;
60610;SDS011;46439;51.164;13.572;2022-10-03T06:58:20;31.40;;;7.70;;
60610;SDS011;46439;51.164;13.572;2022-10-03T07:01:03;38.40;;;7.50;;
60610;SDS011;46439;51.164;13.572;2022-10-03T07:06:55;34.30;;;6.10;;
60610;SDS011;46439;51.164;13.572;2022-10-03T07:09:50;33.50;;;5.80;;
60610;SDS011;46439;51.164;13.572;2022-10-03T07:15:47;23.30;;;4.70;;
60610;SDS011;46439;51.164;13.572;2022-10-03T07:18:48;20.90;;;4.40;;
60610;SDS011;46439;51.164;13.572;2022-10-03T07:21:46;22.40;;;4.40;;
60610;SDS011;46439;51.164;13.572;2022-10-03T07:24:50;30.20;;;5.80;;
60610;SDS011;46439;51.164;13.572;2022-10-03T07:27:42;26.30;;;4.70;;
60610;SDS011;46439;51.164;13.572;2022-10-03T07:30:18;21.10;;;4.60;;
60610;SDS011;46439;51.164;13.572;2022-10-03T07:36:12;26.00;;;4.70;;
60610;SDS011;46439;51.164;13.572;2022-10-03T07:39:24;24.70;;;4.10;;
60610;SDS011;46439;51.164;13.572;2022-10-03T07:45:19;24.00;;;6.00;;
60610;SDS011;46439;51.164;13.572;2022-10-03T07:48:06;27.40;;;7.50;;
60610;SDS011;46439;51.164;13.572;2022-10-03T07:50:54;27.90;;;5.70;;
60610;SDS011;46439;51.164;13.572;2022-10-03T07:53:46;22.60;;;5.10;;
60610;SDS011;46439;51.164;13.572;2022-10-03T08:00:04;30.40;;;5.00;;
60610;SDS011;46439;51.164;13.572;2022-10-03T08:02:56;24.60;;;4.70;;
60610;SDS011;46439;51.164;13.572;2022-10-03T08:05:56;33.00;;;4.50;;
60610;SDS011;46439;51.164;13.572;2022-10-03T08:11:44;25.70;;;4.70;;
60610;SDS011;46439;51.164;13.572;2022-10-03T08:14:26;32.80;;;4.90;;
60610;SDS011;46439;51.164;13.572;2022-10-03T08:17:23;25.90;;;4.50;;
60610;SDS011;46439;51.164;13.572;2022-10-03T08:20:19;30.30;;;5.40;;
60610;SDS011;46439;51.164;13.572;2022-10-03T08:23:02;32.00;;;6.20;;
60610;SDS011;46439;51.164;13.572;2022-10-03T08:25:53;28.70;;;5.10;;
60610;SDS011;46439;51.164;13.572;2022-10-03T08:28:37;25.90;;;5.00;;
60610;SDS011;46439;51.164;13.572;2022-10-03T08:31:21;24.20;;;5.30;;
60610;SDS011;46439;51.164;13.572;2022-10-03T08:34:12;20.80;;;5.20;;
60610;SDS011;46439;51.164;13.572;2022-10-03T08:43:25;24.90;;;6.30;;
60610;SDS011;46439;51.164;13.572;2022-10-03T08:46:25;37.10;;;5.90;;
60610;SDS011;46439;51.164;13.572;2022-10-03T08:49:15;21.80;;;5.00;;
60610;SDS011;46439;51.164;13.572;2022-10-03T08:52:04;29.80;;;6.80;;
60610;SDS011;46439;51.164;13.572;2022-10-03T08:54:55;25.70;;;5.60;;
60610;SDS011;46439;51.164;13.572;2022-10-03T08:58:13;31.50;;;6.20;;
60610;SDS011;46439;51.164;13.572;2022-10-03T09:01:00;20.50;;;5.80;;
60610;SDS011;46439;51.164;13.572;2022-10-03T09:06:58;22.40;;;4.90;;
60610;SDS011;46439;51.164;13.572;2022-10-03T09:13:01;28.10;;;6.70;;
60610;SDS011;46439;51.164;13.572;2022-10-03T09:15:58;31.10;;;6.30;;
60610;SDS011;46439;51.164;13.572;2022-10-03T09:19:03;34.50;;;5.60;;
60610;SDS011;46439;51.164;13.572;2022-10-03T09:25:05;25.50;;;4.10;;
60610;SDS011;46439;51.164;13.572;2022-10-03T09:27:51;24.70;;;5.10;;
60610;SDS011;46439;51.164;13.572;2022-10-03T09:30:42;29.50;;;4.10;;
60610;SDS011;46439;51.164;13.572;2022-10-03T09:36:35;26.80;;;4.80;;
60610;SDS011;46439;51.164;13.572;2022-10-03T09:42:43;23.00;;;4.00;;
60610;SDS011;46439;51.164;13.572;2022-10-03T09:48:56;22.10;;;4.00;;
60610;SDS011;46439;51.164;13.572;2022-10-03T09:51:50;22.40;;;3.50;;
60610;SDS011;46439;51.164;13.572;2022-10-03T09:54:47;28.80;;;5.20;;
60610;SDS011;46439;51.164;13.572;2022-10-03T09:57:34;17.30;;;3.50;;
60610;SDS011;46439;51.164;13.572;2022-10-03T10:00:18;23.90;;;4.10;;
60610;SDS011;46439;51.164;13.572;2022-10-03T10:02:54;22.40;;;4.00;;
60610;SDS011;46439;51.164;13.572;2022-10-03T10:08:54;22.40;;;3.20;;
60610;SDS011;46439;51.164;13.572;2022-10-03T10:11:53;23.20;;;3.60;;
60610;SDS011;46439;51.164;13.572;2022-10-03T10:20:36;19.10;;;3.20;;
60610;SDS011;46439;51.164;13.572;2022-10-03T10:23:30;23.50;;;4.00;;
60610;SDS011;46439;51.164;13.572;2022-10-03T10:26:22;19.90;;;4.10;;
60610;SDS011;46439;51.164;13.572;2022-10-03T10:29:33;16.40;;;3.90;;
60610;SDS011;46439;51.164;13.572;2022-10-03T10:42:02;19.60;;;3.30;;
60610;SDS011;46439;51.164;13.572;2022-10-03T10:45:09;17.10;;;2.60;;
60610;SDS011;46439;51.164;13.572;2022-10-03T10:57:07;14.70;;;2.80;;
60610;SDS011;46439;51.164;13.572;2022-10-03T10:59:58;17.80;;;3.10;;
60610;SDS011;46439;51.164;13.572;2022-10-03T11:09:08;17.90;;;2.90;;
60610;SDS011;46439;51.164;13.572;2022-10-03T11:15:36;21.40;;;3.60;;
60610;SDS011;46439;51.164;13.572;2022-10-03T11:24:56;17.60;;;3.10;;
60610;SDS011;46439;51.164;13.572;2022-10-03T11:28:02;21.60;;;3.30;;
60610;SDS011;46439;51.164;13.572;2022-10-03T11:34:01;16.80;;;2.70;;
60610;SDS011;46439;51.164;13.572;2022-10-03T11:37:08;18.20;;;2.90;;
60610;SDS011;46439;51.164;13.572;2022-10-03T11:39:51;13.00;;;3.30;;
60610;SDS011;46439;51.164;13.572;2022-10-03T11:42:34;15.20;;;3.00;;
60610;SDS011;46439;51.164;13.572;2022-10-03T11:45:16;16.00;;;2.80;;
60610;SDS011;46439;51.164;13.572;2022-10-03T11:47:53;18.50;;;3.20;;
60610;SDS011;46439;51.164;13.572;2022-10-03T11:50:43;15.60;;;3.00;;
60610;SDS011;46439;51.164;13.572;2022-10-03T11:53:18;14.40;;;2.50;;
60610;SDS011;46439;51.164;13.572;2022-10-03T11:55:57;22.90;;;3.90;;
60610;SDS011;46439;51.164;13.572;2022-10-03T11:58:44;24.40;;;5.40;;
60610;SDS011;46439;51.164;13.572;2022-10-03T12:01:31;23.90;;;5.60;;
60610;SDS011;46439;51.164;13.572;2022-10-03T12:04:12;16.80;;;3.40;;
60610;SDS011;46439;51.164;13.572;2022-10-03T12:06:52;15.80;;;3.50;;
60610;SDS011;46439;51.164;13.572;2022-10-03T12:09:54;19.00;;;5.70;;
60610;SDS011;46439;51.164;13.572;2022-10-03T12:12:33;12.20;;;4.10;;
60610;SDS011;46439;51.164;13.572;2022-10-03T12:15:16;15.70;;;3.20;;
60610;SDS011;46439;51.164;13.572;2022-10-03T12:17:54;15.50;;;3.90;;
60610;SDS011;46439;51.164;13.572;2022-10-03T12:20:31;14.70;;;3.30;;
60610;SDS011;46439;51.164;13.572;2022-10-03T12:23:16;17.30;;;4.40;;
60610;SDS011;46439;51.164;13.572;2022-10-03T12:25:53;16.20;;;4.60;;
60610;SDS011;46439;51.164;13.572;2022-10-03T12:28:23;22.10;;;8.80;;
60610;SDS011;46439;51.164;13.572;2022-10-03T12:30:55;13.50;;;5.30;;
60610;SDS011;46439;51.164;13.572;2022-10-03T12:33:36;23.10;;;7.40;;
60610;SDS011;46439;51.164;13.572;2022-10-03T12:36:14;17.70;;;6.50;;
60610;SDS011;46439;51.164;13.572;2022-10-03T12:41:53;15.80;;;4.30;;
60610;SDS011;46439;51.164;13.572;2022-10-03T12:44:34;17.20;;;5.30;;
60610;SDS011;46439;51.164;13.572;2022-10-03T12:47:22;12.70;;;2.60;;
60610;SDS011;46439;51.164;13.572;2022-10-03T12:49:57;14.40;;;3.20;;
60610;SDS011;46439;51.164;13.572;2022-10-03T12:52:34;14.50;;;2.80;;
60610;SDS011;46439;51.164;13.572;2022-10-03T12:55:18;13.50;;;3.30;;
60610;SDS011;46439;51.164;13.572;2022-10-03T12:57:53;15.90;;;3.20;;
60610;SDS011;46439;51.164;13.572;2022-10-03T13:00:29;13.30;;;2.50;;
60610;SDS011;46439;51.164;13.572;2022-10-03T13:03:14;10.20;;;2.40;;
60610;SDS011;46439;51.164;13.572;2022-10-03T13:06:03;15.40;;;3.10;;
60610;SDS011;46439;51.164;13.572;2022-10-03T13:08:57;15.40;;;3.00;;
60610;SDS011;46439;51.164;13.572;2022-10-03T13:11:39;11.10;;;2.70;;
60610;SDS011;46439;51.164;13.572;2022-10-03T13:14:24;12.30;;;3.10;;
60610;SDS011;46439;51.164;13.572;2022-10-03T13:19:48;12.80;;;2.40;;
60610;SDS011;46439;51.164;13.572;2022-10-03T13:22:27;13.90;;;3.10;;
60610;SDS011;46439;51.164;13.572;2022-10-03T13:25:03;8.60;;;2.00;;
60610;SDS011;46439;51.164;13.572;2022-10-03T13:27:41;10.00;;;2.10;;
60610;SDS011;46439;51.164;13.572;2022-10-03T13:30:15;15.50;;;2.40;;
60610;SDS011;46439;51.164;13.572;2022-10-03T13:32:49;14.40;;;2.60;;
60610;SDS011;46439;51.164;13.572;2022-10-03T13:35:24;12.00;;;2.20;;
60610;SDS011;46439;51.164;13.572;2022-10-03T13:38:32;7.40;;;1.80;;
60610;SDS011;46439;51.164;13.572;2022-10-03T13:41:29;13.90;;;2.30;;
60610;SDS011;46439;51.164;13.572;2022-10-03T13:44:12;10.60;;;2.00;;
60610;SDS011;46439;51.164;13.572;2022-10-03T13:46:44;13.50;;;2.40;;
60610;SDS011;46439;51.164;13.572;2022-10-03T13:49:21;11.00;;;2.10;;
60610;SDS011;46439;51.164;13.572;2022-10-03T13:51:58;13.60;;;2.90;;
60610;SDS011;46439;51.164;13.572;2022-10-03T13:54:40;7.80;;;2.10;;
60610;SDS011;46439;51.164;13.572;2022-10-03T13:57:23;14.80;;;2.60;;
60610;SDS011;46439;51.164;13.572;2022-10-03T14:00:00;16.40;;;2.80;;
60610;SDS011;46439;51.164;13.572;2022-10-03T14:02:53;10.20;;;3.10;;
60610;SDS011;46439;51.164;13.572;2022-10-03T14:05:50;11.40;;;2.60;;
60610;SDS011;46439;51.164;13.572;2022-10-03T14:11:24;11.30;;;2.50;;
60610;SDS011;46439;51.164;13.572;2022-10-03T14:14:01;13.20;;;2.90;;
60610;SDS011;46439;51.164;13.572;2022-10-03T14:16:50;15.70;;;3.40;;
60610;SDS011;46439;51.164;13.572;2022-10-03T14:19:25;12.70;;;3.40;;
60610;SDS011;46439;51.164;13.572;2022-10-03T14:22:06;10.40;;;2.30;;
60610;SDS011;46439;51.164;13.572;2022-10-03T14:24:50;9.60;;;2.40;;
60610;SDS011;46439;51.164;13.572;2022-10-03T14:30:15;10.80;;;2.80;;
60610;SDS011;46439;51.164;13.572;2022-10-03T14:32:48;9.50;;;2.30;;
60610;SDS011;46439;51.164;13.572;2022-10-03T14:38:25;16.30;;;3.10;;
60610;SDS011;46439;51.164;13.572;2022-10-03T14:41:23;12.60;;;2.50;;
60610;SDS011;46439;51.164;13.572;2022-10-03T14:44:03;8.10;;;2.10;;
60610;SDS011;46439;51.164;13.572;2022-10-03T14:46:34;9.00;;;1.80;;
60610;SDS011;46439;51.164;13.572;2022-10-03T14:49:10;10.90;;;2.30;;
60610;SDS011;46439;51.164;13.572;2022-10-03T14:51:47;16.90;;;2.50;;
60610;SDS011;46439;51.164;13.572;2022-10-03T14:54:20;11.70;;;2.20;;
60610;SDS011;46439;51.164;13.572;2022-10-03T14:56:51;8.20;;;2.20;;
60610;SDS011;46439;51.164;13.572;2022-10-03T14:59:24;11.00;;;2.20;;
60610;SDS011;46439;51.164;13.572;2022-10-03T15:01:55;9.90;;;2.40;;
60610;SDS011;46439;51.164;13.572;2022-10-03T15:04:27;5.80;;;1.80;;
60610;SDS011;46439;51.164;13.572;2022-10-03T15:06:59;10.90;;;2.50;;
60610;SDS011;46439;51.164;13.572;2022-10-03T15:09:29;11.40;;;2.80;;
60610;SDS011;46439;51.164;13.572;2022-10-03T15:12:09;12.00;;;3.60;;
60610;SDS011;46439;51.164;13.572;2022-10-03T15:14:43;13.10;;;4.50;;
60610;SDS011;46439;51.164;13.572;2022-10-03T15:17:20;16.80;;;5.20;;
60610;SDS011;46439;51.164;13.572;2022-10-03T15:19:53;12.20;;;4.90;;
60610;SDS011;46439;51.164;13.572;2022-10-03T15:22:27;17.50;;;6.20;;
60610;SDS011;46439;51.164;13.572;2022-10-03T15:25:00;18.00;;;7.20;;
60610;SDS011;46439;51.164;13.572;2022-10-03T15:27:37;19.60;;;7.70;;
60610;SDS011;46439;51.164;13.572;2022-10-03T15:30:16;21.90;;;9.50;;
60610;SDS011;46439;51.164;13.572;2022-10-03T15:32:47;12.80;;;5.60;;
60610;SDS011;46439;51.164;13.572;2022-10-03T15:35:18;19.40;;;5.90;;
60610;SDS011;46439;51.164;13.572;2022-10-03T15:37:52;13.60;;;4.90;;
60610;SDS011;46439;51.164;13.572;2022-10-03T15:40:30;14.40;;;5.40;;
60610;SDS011;46439;51.164;13.572;2022-10-03T15:43:02;12.30;;;3.70;;
60610;SDS011;46439;51.164;13.572;2022-10-03T15:45:38;12.70;;;4.00;;
60610;SDS011;46439;51.164;13.572;2022-10-03T15:48:09;16.60;;;5.00;;
60610;SDS011;46439;51.164;13.572;2022-10-03T15:50:42;13.80;;;4.70;;
60610;SDS011;46439;51.164;13.572;2022-10-03T15:53:19;15.50;;;4.80;;
60610;SDS011;46439;51.164;13.572;2022-10-03T15:58:22;27.00;;;10.10;;
60610;SDS011;46439;51.164;13.572;2022-10-03T16:00:58;12.40;;;3.30;;
60610;SDS011;46439;51.164;13.572;2022-10-03T16:03:32;15.70;;;5.60;;
60610;SDS011;46439;51.164;13.572;2022-10-03T16:06:08;20.80;;;7.50;;
60610;SDS011;46439;51.164;13.572;2022-10-03T16:08:45;22.00;;;7.60;;
60610;SDS011;46439;51.164;13.572;2022-10-03T16:11:24;13.70;;;3.70;;
60610;SDS011;46439;51.164;13.572;2022-10-03T16:13:58;18.50;;;6.90;;
60610;SDS011;46439;51.164;13.572;2022-10-03T16:16:37;25.00;;;7.50;;
60610;SDS011;46439;51.164;13.572;2022-10-03T16:19:24;24.60;;;7.40;;
60610;SDS011;46439;51.164;13.572;2022-10-03T16:22:03;16.20;;;3.70;;
60610;SDS011;46439;51.164;13.572;2022-10-03T16:24:41;20.80;;;6.40;;
60610;SDS011;46439;51.164;13.572;2022-10-03T16:27:21;25.90;;;7.60;;
60610;SDS011;46439;51.164;13.572;2022-10-03T16:32:24;24.70;;;8.70;;
60610;SDS011;46439;51.164;13.572;2022-10-03T16:34:57;11.10;;;3.70;;
60610;SDS011;46439;51.164;13.572;2022-10-03T16:37:29;31.50;;;9.60;;
60610;SDS011;46439;51.164;13.572;2022-10-03T16:40:03;18.30;;;5.90;;
60610;SDS011;46439;51.164;13.572;2022-10-03T16:42:42;27.30;;;7.20;;
60610;SDS011;46439;51.164;13.572;2022-10-03T16:45:19;21.50;;;8.20;;
60610;SDS011;46439;51.164;13.572;2022-10-03T16:47:51;18.20;;;3.20;;
60610;SDS011;46439;51.164;13.572;2022-10-03T16:50:41;18.80;;;5.80;;
60610;SDS011;46439;51.164;13.572;2022-10-03T16:53:15;12.30;;;3.20;;
60610;SDS011;46439;51.164;13.572;2022-10-03T16:55:45;22.70;;;7.90;;
60610;SDS011;46439;51.164;13.572;2022-10-03T16:58:19;14.60;;;3.30;;
60610;SDS011;46439;51.164;13.572;2022-10-03T17:00:52;17.10;;;5.40;;
60610;SDS011;46439;51.164;13.572;2022-10-03T17:03:27;17.00;;;5.90;;
60610;SDS011;46439;51.164;13.572;2022-10-03T17:06:01;10.40;;;3.60;;
60610;SDS011;46439;51.164;13.572;2022-10-03T17:11:05;12.00;;;3.80;;
60610;SDS011;46439;51.164;13.572;2022-10-03T17:13:43;14.20;;;4.40;;
60610;SDS011;46439;51.164;13.572;2022-10-03T17:16:14;14.50;;;4.10;;
60610;SDS011;46439;51.164;13.572;2022-10-03T17:18:58;14.10;;;4.10;;
60610;SDS011;46439;51.164;13.572;2022-10-03T17:21:34;15.00;;;4.50;;
60610;SDS011;46439;51.164;13.572;2022-10-03T17:24:08;16.30;;;4.60;;
60610;SDS011;46439;51.164;13.572;2022-10-03T17:26:41;21.90;;;6.80;;
60610;SDS011;46439;51.164;13.572;2022-10-03T17:29:14;14.30;;;4.20;;
60610;SDS011;46439;51.164;13.572;2022-10-03T17:31:47;16.20;;;4.20;;
60610;SDS011;46439;51.164;13.572;2022-10-03T17:34:22;13.40;;;4.00;;
60610;SDS011;46439;51.164;13.572;2022-10-03T17:37:04;12.40;;;3.80;;
60610;SDS011;46439;51.164;13.572;2022-10-03T17:39:52;16.20;;;3.20;;
60610;SDS011;46439;51.164;13.572;2022-10-03T17:42:25;14.20;;;3.20;;
60610;SDS011;46439;51.164;13.572;2022-10-03T17:45:02;11.70;;;3.00;;
60610;SDS011;46439;51.164;13.572;2022-10-03T17:47:45;11.50;;;2.60;;
60610;SDS011;46439;51.164;13.572;2022-10-03T17:50:23;12.10;;;2.80;;
60610;SDS011;46439;51.164;13.572;2022-10-03T17:52:56;9.70;;;2.90;;
60610;SDS011;46439;51.164;13.572;2022-10-03T17:55:28;11.80;;;2.60;;
60610;SDS011;46439;51.164;13.572;2022-10-03T17:58:03;10.30;;;2.80;;
60610;SDS011;46439;51.164;13.572;2022-10-03T18:00:52;12.90;;;3.40;;
60610;SDS011;46439;51.164;13.572;2022-10-03T18:03:27;12.30;;;2.50;;
60610;SDS011;46439;51.164;13.572;2022-10-03T18:09:07;8.60;;;2.90;;
60610;SDS011;46439;51.164;13.572;2022-10-03T18:11:48;9.20;;;2.40;;
60610;SDS011;46439;51.164;13.572;2022-10-03T18:14:22;13.50;;;3.00;;
60610;SDS011;46439;51.164;13.572;2022-10-03T18:17:03;11.80;;;3.00;;
60610;SDS011;46439;51.164;13.572;2022-10-03T18:19:44;11.00;;;2.50;;
60610;SDS011;46439;51.164;13.572;2022-10-03T18:22:22;10.10;;;2.70;;
60610;SDS011;46439;51.164;13.572;2022-10-03T18:24:56;9.20;;;2.00;;
60610;SDS011;46439;51.164;13.572;2022-10-03T18:28:07;6.50;;;2.10;;
60610;SDS011;46439;51.164;13.572;2022-10-03T18:30:44;8.80;;;2.10;;
60610;SDS011;46439;51.164;13.572;2022-10-03T18:33:17;6.40;;;1.90;;
60610;SDS011;46439;51.164;13.572;2022-10-03T18:35:49;10.80;;;2.30;;
60610;SDS011;46439;51.164;13.572;2022-10-03T18:38:20;7.60;;;2.00;;
60610;SDS011;46439;51.164;13.572;2022-10-03T18:40:50;6.60;;;1.70;;
60610;SDS011;46439;51.164;13.572;2022-10-03T18:43:25;9.10;;;2.00;;
60610;SDS011;46439;51.164;13.572;2022-10-03T18:45:58;6.20;;;2.00;;
60610;SDS011;46439;51.164;13.572;2022-10-03T18:48:37;7.90;;;1.70;;
60610;SDS011;46439;51.164;13.572;2022-10-03T18:51:12;8.10;;;2.10;;
60610;SDS011;46439;51.164;13.572;2022-10-03T18:53:50;6.00;;;2.10;;
60610;SDS011;46439;51.164;13.572;2022-10-03T18:56:24;13.30;;;2.10;;
60610;SDS011;46439;51.164;13.572;2022-10-03T18:59:01;6.00;;;2.00;;
60610;SDS011;46439;51.164;13.572;2022-10-03T19:01:40;7.50;;;2.10;;